Bolu, Turkey
Current Conditions -  °F | °C
As of 3:50 PM on Friday 31 Oct 2014 (Local Time) from LTBQ Reporting Station
Rain Showers Rain Showers  
Wind Chill: 54°   Ceiling: 1700
Heat Index: 54°   Visibility: 4mi
Dew Point: 52°   Wind: 7mph
Humidity: 94%   Direction: 280°W
Pressure: 30.09"   Gusts: NA
Location:  40.75°N, 31.61°E
Report Text: LTBQ 311250Z 28006KT 230V320 6000 -SHRA SCT009 BKN017 OVC070 12/11 Q1019 TEMPO 2200 SHRA BR SCT006 BKN015 BKN070
Loading
Personal Weather Stations






























Interactive Weather Map New forecast layout! Learn more

10-Day Weather Forecast

Advertisements
Track Severe Weather on mobile